Time;durP1;ratioP1;P1;durP2;ratioP2;P2;SDS_P1;SDS_P2;PMS_P1;PMS_P2;Temp;Humidity;BMP_temperature;BMP_pressure;BME280_temperature;BME280_humidity;BME280_pressure;Samples;Min_cycle;Max_cycle;Signal;HPM_P1;HPM_P2
2022/12/13 05:56:11;;;;;;;;;;;;;;;6.41;96.29;98784.06;6292914;22;19934;-85
2022/12/13 05:58:37;;;;;;;;;;;;;;;6.39;96.11;98789.41;6280561;22;19918;-84
2022/12/13 06:01:04;;;;;;;;;;;;;;;6.41;96.06;98781.44;6307629;22;20115;-84
2022/12/13 06:03:29;;;;;;;;;;;;;;;6.39;95.98;98781.50;6307805;22;19911;-86
2022/12/13 06:05:55;;;;;;;;;;;;;;;6.39;95.80;98781.50;6307856;22;19949;-85
2022/12/13 06:08:22;;;;;;;;;;;;;;;6.40;95.94;98782.34;6280819;22;19911;-87
2022/12/13 06:10:53;;;;;;;;;;;;;;;6.40;95.75;98788.50;6306226;22;19911;-84
2022/12/13 06:13:21;;;;;;;;;;;;;;;6.39;95.67;98788.56;6280413;22;19914;-84
2022/12/13 06:15:46;;;;;;;;;;;;;;;6.39;95.64;98785.94;6306470;22;19926;-87
2022/12/13 06:18:12;;;;;;;;;;;;;;;6.44;95.79;98789.22;6307770;22;20258;-84
2022/12/13 06:20:37;;;;;;;;;;;;;;;6.41;95.67;98789.34;6307696;22;19914;-85
2022/12/13 06:23:02;;;;;;;;;;;;;;;6.41;95.46;98791.97;6280467;22;19915;-87
2022/12/13 06:25:28;;;;;;;;;;;;;;;6.41;95.75;98798.06;6306123;22;19918;-92
2022/12/13 06:27:53;;;;;;;;;;;;;;;6.41;96.02;98800.72;6306803;22;19915;-90
2022/12/13 06:30:18;;;;;;;;;;;;;;;6.42;96.05;98794.53;6307508;22;19907;-92
2022/12/13 06:32:49;;;;;;;;;;;;;;;6.40;95.47;98792.88;6307726;22;19914;-89
2022/12/13 06:35:15;;;;;;;;;;;;;;;6.41;95.60;98795.44;6280561;22;19911;-91
2022/12/13 06:37:40;;;;;;;;;;;;;;;6.39;95.76;98789.41;6307603;22;19914;-90
2022/12/13 06:40:06;;;;;;;;;;;;;;;6.41;95.75;98791.97;6305912;22;19954;-90
2022/12/13 06:42:31;;;;;;;;;;;;;;;6.40;95.65;98796.38;6308820;22;19918;-91
2022/12/13 06:44:57;;;;;;;;;;;;;;;6.40;95.64;98801.66;6309897;22;19918;-91
2022/12/13 06:47:26;;;;;;;;;;;;;;;6.42;95.94;98804.22;6309791;22;19914;-85
2022/12/13 06:49:51;;;;;;;;;;;;;;;6.41;95.63;98798.06;6309628;22;19911;-87
2022/12/13 06:52:16;;;;;;;;;;;;;;;6.44;95.62;98805.00;6309568;22;19917;-91
2022/12/13 06:54:42;;;;;;;;;;;;;;;6.43;95.95;98805.91;6308026;22;20297;-91
2022/12/13 06:57:08;;;;;;;;;;;;;;;6.43;95.84;98804.16;6290249;22;19916;-90
2022/12/13 06:59:33;;;;;;;;;;;;;;;6.41;95.55;98802.50;6251337;22;19911;-90
2022/12/13 07:01:59;;;;;;;;;;;;;;;6.44;95.86;98805.00;6278514;22;19918;-85
2022/12/13 07:04:24;;;;;;;;;;;;;;;6.43;95.80;98806.78;6251374;22;19911;-83
2022/12/13 07:06:49;;;;;;;;;;;;;;;6.40;95.65;98811.28;6251567;22;19911;-88
2022/12/13 07:09:14;;;;;;;;;;;;;;;6.43;95.71;98805.91;6276829;22;19998;-88
2022/12/13 07:11:40;;;;;;;;;;;;;;;6.43;95.73;98812.06;6251807;22;19973;-89
2022/12/13 07:14:05;;;;;;;;;;;;;;;6.44;95.95;98815.53;6251159;22;19911;-91
2022/12/13 07:16:30;;;;;;;;;;;;;;;6.43;95.83;98817.31;6278412;22;20235;-88
2022/12/13 07:18:59;;;;;;;;;;;;;;;6.41;95.49;98813.03;6251389;22;19911;-85
2022/12/13 07:21:25;;;;;;;;;;;;;;;6.43;95.62;98819.06;6251499;22;19912;-85
2022/12/13 07:23:50;;;;;;;;;;;;;;;6.43;95.45;98816.44;6276818;22;19918;-87
2022/12/13 07:26:16;;;;;;;;;;;;;;;6.42;95.62;98820.84;6251055;22;19974;-84
2022/12/13 07:28:41;;;;;;;;;;;;;;;6.43;95.53;98817.31;6278279;22;19946;-89
2022/12/13 07:31:07;;;;;;;;;;;;;;;6.43;95.49;98821.69;6278428;22;19911;-87
2022/12/13 07:33:35;;;;;;;;;;;;;;;6.41;95.56;98821.75;6276796;22;19911;-88
2022/12/13 07:36:00;;;;;;;;;;;;;;;6.43;95.87;98825.22;6214427;23;19919;-88
2022/12/13 07:38:28;;;;;;;;;;;;;;;6.40;95.65;98820.06;6214743;23;19908;-88
2022/12/13 07:40:55;;;;;;;;;;;;;;;6.42;95.62;98825.28;6213308;23;19927;-92
2022/12/13 07:43:20;;;;;;;;;;;;;;;6.41;95.73;98829.66;6214600;23;19912;-87
2022/12/13 07:45:45;;;;;;;;;;;;;;;6.41;95.57;98831.44;6214804;23;20359;-83
2022/12/13 07:48:13;;;;;;;;;;;;;;;6.41;95.41;98834.91;6214858;23;19935;-88
2022/12/13 07:50:47;;;;;;;;;;;;;;;6.41;95.34;98831.44;6214504;23;19912;-89
2022/12/13 07:53:13;;;;;;;;;;;;;;;6.42;95.47;98830.53;6214667;23;19915;-91
2022/12/13 07:55:38;;;;;;;;;;;;;;;6.43;95.56;98837.50;6212600;23;19912;-87
2022/12/13 07:58:07;;;;;;;;;;;;;;;6.41;95.35;98831.44;6219479;23;19916;-91
2022/12/13 08:00:33;;;;;;;;;;;;;;;6.43;95.37;98834.84;6250543;22;19910;-85
2022/12/13 08:02:59;;;;;;;;;;;;;;;6.40;95.16;98824.47;6309024;22;20301;-87
2022/12/13 08:05:24;;;;;;;;;;;;;;;6.41;95.25;98819.13;6309030;22;19990;-86
2022/12/13 08:07:49;;;;;;;;;;;;;;;6.39;95.23;98814.88;6309152;22;19911;-85
2022/12/13 08:10:17;;;;;;;;;;;;;;;6.41;94.99;98815.66;6307308;22;19910;-91
2022/12/13 08:12:42;;;;;;;;;;;;;;;6.43;94.98;98826.97;6309196;22;19911;-93
2022/12/13 08:15:08;;;;;;;;;;;;;;;6.39;94.93;98820.13;6309264;22;19982;-90
2022/12/13 08:59:30;;;;;;;;;;;;;;;6.34;93.64;98854.53;6276438;22;20053;-93
2022/12/13 09:01:55;;;;;;;;;;;;;;;6.13;91.32;98851.81;6275900;22;19974;-86
2022/12/13 09:04:21;;;;;;;;;;;;;;;6.13;94.62;98845.72;6276856;22;19915;-88
2022/12/13 09:06:46;;;;;;;;;;;;;;;6.22;97.29;98845.31;6277638;22;19911;-92
2022/12/13 09:09:11;;;;;;;;;;;;;;;6.27;98.69;98843.41;6249339;22;19917;-88
2022/12/13 09:11:38;;;;;;;;;;;;;;;6.34;99.48;98844.00;6274208;22;19911;-85
2022/12/13 09:14:04;;;;;;;;;;;;;;;6.31;99.53;98839.72;6277267;22;19915;-93
2022/12/13 09:16:29;;;;;;;;;;;;;;;6.28;99.27;98845.09;6277627;22;19994;-84
2022/12/13 09:18:54;;;;;;;;;;;;;;;6.08;97.55;98843.28;6277653;22;19911;-88
2022/12/13 09:21:23;;;;;;;;;;;;;;;5.97;100.00;98841.06;6275850;22;20369;-92
2022/12/13 09:23:49;;;;;;;;;;;;;;;6.22;100.00;98840.06;6278072;22;20377;-87
2022/12/13 09:26:15;;;;;;;;;;;;;;;6.26;100.00;98835.56;6276125;22;19947;-90
2022/12/13 09:28:45;;;;;;;;;;;;;;;6.29;100.00;98840.69;6277185;22;19915;-89
2022/12/13 09:31:11;;;;;;;;;;;;;;;6.31;100.00;98841.50;6276103;22;20208;-94
2022/12/13 09:33:37;;;;;;;;;;;;;;;6.33;100.00;98837.88;6277152;22;19964;-92
2022/12/13 09:36:04;;;;;;;;;;;;;;;6.30;100.00;98831.88;6277966;22;19998;-90
2022/12/13 09:38:35;;;;;;;;;;;;;;;6.32;100.00;98823.00;6276975;22;20239;-90
2022/12/13 09:41:27;;;;;;;;;;;;;;;6.34;100.00;98829.06;6276658;22;19965;-95
2022/12/13 09:44:04;;;;;;;;;;;;;;;6.34;100.00;98825.59;6271889;22;19915;-93
2022/12/13 09:46:39;;;;;;;;;;;;;;;6.35;100.00;98836.03;6251259;22;19918;-93
2022/12/13 09:49:14;;;;;;;;;;;;;;;6.34;100.00;98838.75;6278871;22;19917;-92
2022/12/13 09:51:47;;;;;;;;;;;;;;;6.33;100.00;98835.25;6276939;22;20223;-88
2022/12/13 09:54:17;;;;;;;;;;;;;;;6.33;100.00;98832.63;6278113;22;19934;-91
2022/12/13 09:56:42;;;;;;;;;;;;;;;6.35;100.00;98827.28;6249075;22;19911;-87
2022/12/13 09:59:13;;;;;;;;;;;;;;;6.36;100.00;98821.94;6253383;22;19922;-92
2022/12/13 10:01:38;;;;;;;;;;;;;;;6.39;100.00;98834.13;6247157;23;19947;-89
2022/12/13 10:04:10;;;;;;;;;;;;;;;6.38;100.00;98829.78;6247023;23;19918;-90
2022/12/13 10:06:35;;;;;;;;;;;;;;;6.39;100.00;98825.41;6246783;23;19907;-90
2022/12/13 10:09:00;;;;;;;;;;;;;;;6.43;100.00;98812.06;6220257;23;19916;-93
2022/12/13 10:11:27;;;;;;;;;;;;;;;6.46;100.00;98811.94;6218678;23;20026;-88
2022/12/13 10:13:52;;;;;;;;;;;;;;;6.44;100.00;98823.44;6219884;23;19961;-94
2022/12/13 10:16:23;;;;;;;;;;;;;;;6.43;100.00;98816.44;6247060;23;19912;-88
2022/12/13 10:18:49;;;;;;;;;;;;;;;6.45;100.00;98827.78;6246819;23;19908;-92
2022/12/13 10:21:21;;;;;;;;;;;;;;;6.45;100.00;98835.66;6246292;23;19957;-95
2022/12/13 10:23:46;;;;;;;;;;;;;;;6.44;100.00;98833.94;6221608;23;19915;-90
2022/12/13 10:26:12;;;;;;;;;;;;;;;6.43;100.00;98824.34;6246508;23;19911;-88
2022/12/13 10:28:38;;;;;;;;;;;;;;;6.41;100.00;98816.50;6219964;23;20338;-90
2022/12/13 10:31:04;;;;;;;;;;;;;;;6.41;100.00;98807.75;6247702;23;19915;-92
2022/12/13 10:33:34;;;;;;;;;;;;;;;6.40;100.00;98814.81;6246093;23;19915;-93
2022/12/13 10:36:05;;;;;;;;;;;;;;;6.40;100.00;98812.19;6245905;23;19912;-91
2022/12/13 10:38:34;;;;;;;;;;;;;;;6.41;100.00;98811.25;6219830;23;20334;-91
2022/12/13 10:40:59;;;;;;;;;;;;;;;6.44;100.00;98799.75;6245720;23;19916;-94
2022/12/13 10:43:33;;;;;;;;;;;;;;;6.43;100.00;98796.25;6218841;23;19957;-92
2022/12/13 10:46:00;;;;;;;;;;;;;;;6.40;100.00;98795.50;6219903;23;19911;-93
2022/12/13 10:48:29;;;;;;;;;;;;;;;6.42;100.00;98798.97;6220273;23;20237;-88
2022/12/13 10:51:07;;;;;;;;;;;;;;;6.44;100.00;98802.38;6219385;23;19919;-93
2022/12/13 10:53:35;;;;;;;;;;;;;;;6.45;100.00;98788.31;6246824;23;19919;-90
2022/12/13 10:56:01;;;;;;;;;;;;;;;6.45;100.00;98798.84;6247312;23;19918;-94
2022/12/13 10:58:38;;;;;;;;;;;;;;;6.46;100.00;98795.25;6244957;22;19941;-93
2022/12/13 11:01:07;;;;;;;;;;;;;;;6.49;100.00;98784.59;6246011;23;19915;-88
2022/12/13 11:03:33;;;;;;;;;;;;;;;6.44;100.00;98786.59;6220210;23;20091;-94
2022/12/13 11:06:11;;;;;;;;;;;;;;;6.45;100.00;98776.00;6247311;23;20228;-90
2022/12/13 11:08:54;;;;;;;;;;;;;;;6.46;100.00;98768.94;6246420;23;20242;-84
2022/12/13 11:11:29;;;;;;;;;;;;;;;6.45;100.00;98764.63;6218854;23;19912;-93
2022/12/13 11:14:00;;;;;;;;;;;;;;;6.45;100.00;98762.84;6219959;23;20212;-93
2022/12/13 11:16:28;;;;;;;;;;;;;;;6.43;100.00;98758.53;6220269;23;19919;-90
2022/12/13 11:18:59;;;;;;;;;;;;;;;6.43;100.00;98755.91;6218900;23;20006;-94
2022/12/13 11:21:25;;;;;;;;;;;;;;;6.39;100.00;98744.66;6219220;23;19951;-90
2022/12/13 11:23:52;;;;;;;;;;;;;;;6.44;100.00;98745.31;6219743;23;19919;-90
2022/12/13 11:26:19;;;;;;;;;;;;;;;6.47;100.00;98753.09;6245458;23;19965;-89
2022/12/13 11:28:56;;;;;;;;;;;;;;;6.46;100.00;98755.78;6248108;23;19912;-92
2022/12/13 11:31:30;;;;;;;;;;;;;;;6.46;100.00;98758.41;6248338;23;19918;-92
2022/12/13 11:34:11;;;;;;;;;;;;;;;6.47;100.00;98757.50;6221671;23;19918;-91
2022/12/13 11:36:55;;;;;;;;;;;;;;;6.45;100.00;98757.56;6221927;23;19922;-93
2022/12/13 11:39:28;;;;;;;;;;;;;;;6.45;100.00;98746.19;6248414;23;20002;-89
2022/12/13 11:42:00;;;;;;;;;;;;;;;6.45;100.00;98733.03;6247230;23;20013;-85
2022/12/13 11:44:36;;;;;;;;;;;;;;;6.46;100.00;98737.38;6248496;23;19997;-92
2022/12/13 11:47:04;;;;;;;;;;;;;;;6.48;100.00;98740.81;6223269;23;19947;-91
2022/12/13 11:49:29;;;;;;;;;;;;;;;6.47;100.00;98739.94;6249074;23;19911;-85
2022/12/13 11:52:16;;;;;;;;;;;;;;;6.46;100.00;98740.00;6249499;23;19990;-86
2022/12/13 11:54:46;;;;;;;;;;;;;;;6.44;100.00;98740.06;6247745;23;19919;-91
2022/12/13 11:57:26;;;;;;;;;;;;;;;6.44;100.00;98740.06;6246911;23;20342;-90
2022/12/13 11:59:54;;;;;;;;;;;;;;;6.46;100.00;98737.38;6248930;23;19919;-91
2022/12/13 12:02:39;;;;;;;;;;;;;;;6.45;100.00;98733.03;6222113;23;19991;-93
2022/12/13 12:05:16;;;;;;;;;;;;;;;6.47;100.00;98733.81;6221632;23;20420;-94
2022/12/13 12:07:48;;;;;;;;;;;;;;;6.47;100.00;98723.28;6221403;23;19912;-90
2022/12/13 12:10:13;;;;;;;;;;;;;;;6.47;100.00;98724.16;6249930;23;19998;-92
2022/12/13 12:12:41;;;;;;;;;;;;;;;6.43;100.00;98719.06;6246952;23;19962;-90
2022/12/13 12:15:19;;;;;;;;;;;;;;;6.45;100.00;98714.63;6221095;23;19918;-89
2022/12/13 12:17:47;;;;;;;;;;;;;;;6.46;100.00;98705.78;6221002;23;20278;-93
2022/12/13 12:20:23;;;;;;;;;;;;;;;6.47;100.00;98702.25;6221129;23;19994;-89
2022/12/13 12:23:17;;;;;;;;;;;;;;;6.46;100.00;98700.53;6248021;23;19943;-88
2022/12/13 12:25:51;;;;;;;;;;;;;;;6.46;100.00;98701.41;6194464;23;20374;-88
2022/12/13 12:28:45;;;;;;;;;;;;;;;6.46;100.00;98696.13;6246218;23;19912;-92
2022/12/13 12:31:10;;;;;;;;;;;;;;;6.47;100.00;98696.97;6222011;23;19979;-92
2022/12/13 12:33:39;;;;;;;;;;;;;;;6.48;100.00;98696.06;6247843;23;19916;-84
2022/12/13 12:36:17;;;;;;;;;;;;;;;6.47;100.00;98703.09;6246889;23;19923;-89
2022/12/13 12:38:51;;;;;;;;;;;;;;;6.46;100.00;98690.00;6219869;23;19912;-83
2022/12/13 12:41:17;;;;;;;;;;;;;;;6.47;100.00;98696.97;6246307;23;19915;-89
2022/12/13 12:43:42;;;;;;;;;;;;;;;6.45;100.00;98689.16;6220511;23;19957;-90
2022/12/13 12:46:29;;;;;;;;;;;;;;;6.47;100.00;98691.72;6247376;23;19945;-86
2022/12/13 12:48:55;;;;;;;;;;;;;;;6.47;100.00;98692.56;6219690;23;19986;-90
2022/12/13 12:51:34;;;;;;;;;;;;;;;6.46;100.00;98692.63;6247537;23;19943;-84
2022/12/13 12:54:06;;;;;;;;;;;;;;;6.46;100.00;98684.72;6247624;23;20396;-93
2022/12/13 12:56:44;;;;;;;;;;;;;;;6.45;100.00;98688.31;6244687;23;19911;-85
2022/12/13 12:59:30;;;;;;;;;;;;;;;6.45;100.00;98688.31;6246011;22;19919;-86
2022/12/13 13:02:08;;;;;;;;;;;;;;;6.46;100.00;98680.34;6246718;23;19965;-91
2022/12/13 13:04:38;;;;;;;;;;;;;;;6.48;100.00;98669.75;6246917;23;20225;-91
2022/12/13 13:07:11;;;;;;;;;;;;;;;6.48;100.00;98672.38;6247066;23;19985;-87
2022/12/13 13:09:37;;;;;;;;;;;;;;;6.51;100.00;98669.59;6219938;23;19912;-90
2022/12/13 13:12:04;;;;;;;;;;;;;;;6.50;100.00;98665.28;6247040;23;19907;-88
2022/12/13 13:14:31;;;;;;;;;;;;;;;6.51;100.00;98665.19;6220144;23;20235;-83
2022/12/13 13:16:57;;;;;;;;;;;;;;;6.50;100.00;98663.47;6246733;23;19908;-83
2022/12/13 13:19:32;;;;;;;;;;;;;;;6.50;100.00;98657.38;6246138;23;19920;-87
2022/12/13 13:21:58;;;;;;;;;;;;;;;6.49;100.00;98663.53;6222419;23;19931;-93
2022/12/13 13:24:23;;;;;;;;;;;;;;;6.50;100.00;98670.53;6246876;23;19969;-87
2022/12/13 13:26:48;;;;;;;;;;;;;;;6.50;100.00;98667.91;6246100;23;20274;-85
2022/12/13 13:29:23;;;;;;;;;;;;;;;6.47;100.00;98665.41;6220724;23;19934;-93
2022/12/13 13:31:59;;;;;;;;;;;;;;;6.50;100.00;98667.91;6252183;23;19919;-86
2022/12/13 13:34:26;;;;;;;;;;;;;;;6.49;100.00;98668.81;6246811;23;19911;-88
2022/12/13 13:36:52;;;;;;;;;;;;;;;6.48;100.00;98662.72;6246709;23;19912;-91
2022/12/13 13:39:18;;;;;;;;;;;;;;;6.49;100.00;98653.91;6246667;23;19974;-88
2022/12/13 13:41:49;;;;;;;;;;;;;;;6.49;100.00;98664.44;6246730;23;19915;-88
2022/12/13 13:44:33;;;;;;;;;;;;;;;6.40;97.31;98661.31;6246902;23;19912;-85
2022/12/13 13:47:17;;;;;;;;;;;;;;;6.39;94.95;98657.84;6245866;23;19912;-90
2022/12/13 13:50:02;;;;;;;;;;;;;;;6.49;96.28;98650.38;6246742;23;19939;-87
2022/12/13 13:52:46;;;;;;;;;;;;;;;6.48;97.46;98653.97;6230605;23;19942;-91
2022/12/13 13:55:25;;;;;;;;;;;;;;;6.48;97.86;98648.69;6246516;23;19990;-92
2022/12/13 13:58:09;;;;;;;;;;;;;;;6.50;98.41;98645.06;6213068;23;19916;-89
2022/12/13 14:00:53;;;;;;;;;;;;;;;6.47;98.36;98649.63;6216325;23;19918;-87
2022/12/13 14:03:43;;;;;;;;;;;;;;;6.48;98.62;98640.81;6214323;23;19935;-84
2022/12/13 14:06:34;;;;;;;;;;;;;;;6.49;98.93;98642.50;6214900;23;19916;-91
2022/12/13 14:08:59;;;;;;;;;;;;;;;6.47;98.84;98641.72;6214770;23;19918;-89
2022/12/13 14:11:44;;;;;;;;;;;;;;;6.48;99.08;98644.28;6213011;23;19982;-86
2022/12/13 14:14:28;;;;;;;;;;;;;;;6.48;98.78;98635.53;6216264;23;19912;-88
2022/12/13 14:17:15;;;;;;;;;;;;;;;6.48;99.06;98638.19;6216766;23;20225;-86
2022/12/13 14:19:44;;;;;;;;;;;;;;;6.48;98.95;98630.28;6213537;23;19912;-86
2022/12/13 14:22:28;;;;;;;;;;;;;;;6.48;98.75;98625.88;6213731;23;19912;-89
2022/12/13 14:25:12;;;;;;;;;;;;;;;6.46;98.61;98616.31;6215088;23;20364;-86
2022/12/13 14:27:49;;;;;;;;;;;;;;;6.44;98.25;98621.66;6214069;23;19919;-85
2022/12/13 14:30:17;;;;;;;;;;;;;;;6.47;98.14;98610.13;6215599;23;19916;-89
2022/12/13 14:32:42;;;;;;;;;;;;;;;6.46;98.05;98611.06;6215691;23;19916;-86
2022/12/13 14:35:28;;;;;;;;;;;;;;;6.44;97.80;98613.75;6215695;23;20055;-86
2022/12/13 14:38:06;;;;;;;;;;;;;;;6.46;98.05;98606.66;6216204;23;19933;-84
2022/12/13 14:40:33;;;;;;;;;;;;;;;6.47;98.21;98596.97;6215184;23;19982;-88
2022/12/13 14:42:59;;;;;;;;;;;;;;;6.48;98.20;98594.28;6212023;23;19912;-88
2022/12/13 14:45:33;;;;;;;;;;;;;;;6.48;98.17;98593.44;6238645;23;20239;-88
2022/12/13 14:48:00;;;;;;;;;;;;;;;6.48;98.28;98596.91;6216746;23;19912;-86
2022/12/13 14:50:26;;;;;;;;;;;;;;;6.50;98.73;98588.94;6212809;23;19915;-84
2022/12/13 14:52:51;;;;;;;;;;;;;;;6.48;98.19;98582.91;6214516;23;19958;-89
2022/12/13 14:55:29;;;;;;;;;;;;;;;6.48;98.26;98581.13;6213819;23;19915;-89
2022/12/13 14:57:55;;;;;;;;;;;;;;;6.47;98.13;98589.09;6209538;23;19919;-88
2022/12/13 15:00:32;;;;;;;;;;;;;;;6.49;98.18;98576.69;6212055;23;20372;-89
2022/12/13 15:03:01;;;;;;;;;;;;;;;6.49;97.70;98588.09;6215475;23;19965;-86
2022/12/13 15:05:33;;;;;;;;;;;;;;;6.50;97.76;98583.69;6216192;23;20328;-83
2022/12/13 15:07:59;;;;;;;;;;;;;;;6.47;97.49;98574.16;6216025;23;19958;-87
2022/12/13 15:10:44;;;;;;;;;;;;;;;6.46;97.29;98580.34;6216805;23;20283;-83
2022/12/13 15:13:28;;;;;;;;;;;;;;;6.49;97.69;98574.06;6215704;23;19986;-86
2022/12/13 15:15:55;;;;;;;;;;;;;;;6.49;97.52;98579.34;6216142;23;20332;-85
2022/12/13 15:18:24;;;;;;;;;;;;;;;6.51;97.76;98577.47;6216827;23;19912;-85
2022/12/13 15:20:50;;;;;;;;;;;;;;;6.50;97.57;98575.78;6216194;23;19945;-87
2022/12/13 15:23:18;;;;;;;;;;;;;;;6.49;97.73;98574.06;6216661;23;20023;-86
2022/12/13 15:25:44;;;;;;;;;;;;;;;6.50;97.51;98576.63;6217277;23;20221;-84
2022/12/13 15:28:12;;;;;;;;;;;;;;;6.50;97.46;98571.38;6239628;23;19951;-85
2022/12/13 15:30:38;;;;;;;;;;;;;;;6.50;97.39;98574.00;6216591;23;19916;-85
2022/12/13 15:33:06;;;;;;;;;;;;;;;6.50;97.37;98576.63;6216139;23;19916;-87
2022/12/13 15:35:35;;;;;;;;;;;;;;;6.51;97.35;98582.75;6215594;23;19923;-86
2022/12/13 15:38:00;;;;;;;;;;;;;;;6.50;97.17;98584.53;6215996;23;19912;-83
2022/12/13 15:40:26;;;;;;;;;;;;;;;6.53;97.26;98578.28;6217150;23;19939;-81
2022/12/13 15:42:51;;;;;;;;;;;;;;;6.52;97.28;98580.03;6214860;23;20229;-86
2022/12/13 15:45:20;;;;;;;;;;;;;;;6.54;97.60;98579.97;6216867;23;19962;-84
2022/12/13 15:47:45;;;;;;;;;;;;;;;6.53;97.49;98570.38;6215447;23;19919;-87
2022/12/13 15:50:29;;;;;;;;;;;;;;;6.53;97.72;98579.13;6239837;23;19935;-85
2022/12/13 15:53:00;;;;;;;;;;;;;;;6.55;97.78;98579.06;6215572;23;19964;-89
2022/12/13 15:55:31;;;;;;;;;;;;;;;6.53;97.57;98589.66;6216173;23;19939;-90
2022/12/13 15:57:56;;;;;;;;;;;;;;;6.54;97.64;98587.88;6224981;23;20367;-85
2022/12/13 16:00:27;;;;;;;;;;;;;;;6.54;97.35;98593.13;6247205;23;19954;-88
2022/12/13 16:02:56;;;;;;;;;;;;;;;6.55;97.54;98593.06;6246325;23;19915;-86
2022/12/13 16:05:27;;;;;;;;;;;;;;;6.52;97.34;98585.31;6246888;23;20321;-86
2022/12/13 16:07:53;;;;;;;;;;;;;;;6.54;97.51;98594.00;6247145;23;20324;-86
2022/12/13 16:10:19;;;;;;;;;;;;;;;6.54;97.81;98594.00;6246695;23;19916;-87
2022/12/13 16:12:50;;;;;;;;;;;;;;;6.54;97.16;98598.41;6217861;23;19930;-89
2022/12/13 16:15:17;;;;;;;;;;;;;;;6.51;97.00;98598.53;6246907;23;19918;-89
2022/12/13 16:17:42;;;;;;;;;;;;;;;6.52;96.86;98590.56;6246997;23;19987;-88
2022/12/13 16:20:14;;;;;;;;;;;;;;;6.53;97.15;98584.41;6220640;23;19954;-86
2022/12/13 16:22:40;;;;;;;;;;;;;;;6.52;96.57;98589.72;6245158;23;19918;-88
2022/12/13 16:25:08;;;;;;;;;;;;;;;6.53;96.71;98584.41;6220304;23;19957;-88
2022/12/13 16:27:36;;;;;;;;;;;;;;;6.52;96.29;98585.31;6245662;23;19916;-91
2022/12/13 16:30:10;;;;;;;;;;;;;;;6.53;96.59;98583.56;6250127;23;19911;-94
2022/12/13 16:32:35;;;;;;;;;;;;;;;6.54;96.35;98587.88;6246852;23;19932;-87
2022/12/13 16:35:00;;;;;;;;;;;;;;;6.52;96.11;98587.94;6248454;23;19919;-88
2022/12/13 16:37:26;;;;;;;;;;;;;;;6.55;96.47;98589.59;6219617;23;20306;-87
2022/12/13 16:39:51;;;;;;;;;;;;;;;6.55;96.64;98584.31;6220414;23;19919;-85
2022/12/13 16:42:17;;;;;;;;;;;;;;;6.57;96.97;98579.84;6244511;23;19912;-87
2022/12/13 16:44:42;;;;;;;;;;;;;;;6.57;96.70;98579.00;6219908;23;19947;-89
2022/12/13 16:47:10;;;;;;;;;;;;;;;6.58;96.81;98564.91;6220422;23;19912;-85
2022/12/13 16:49:36;;;;;;;;;;;;;;;6.55;96.32;98558.00;6220120;23;19978;-87
2022/12/13 16:52:03;;;;;;;;;;;;;;;6.57;96.48;98563.19;6219503;23;20236;-87
2022/12/13 16:54:48;;;;;;;;;;;;;;;6.56;96.26;98554.47;6221067;23;19911;-88
2022/12/13 16:57:32;;;;;;;;;;;;;;;6.55;96.17;98553.59;6217996;22;20260;-87
2022/12/13 16:59:57;;;;;;;;;;;;;;;6.55;96.14;98555.38;6247474;23;19934;-88
2022/12/13 17:02:23;;;;;;;;;;;;;;;6.56;96.26;98551.84;6247458;23;20336;-86
2022/12/13 17:04:48;;;;;;;;;;;;;;;6.58;96.47;98546.50;6247316;23;19939;-91
2022/12/13 17:07:13;;;;;;;;;;;;;;;6.56;96.40;98541.31;6221117;23;20319;-89
2022/12/13 17:09:48;;;;;;;;;;;;;;;6.58;96.37;98546.50;6248295;23;19915;-94
2022/12/13 17:12:36;;;;;;;;;;;;;;;6.55;96.04;98542.22;6219935;23;19916;-89
2022/12/13 17:15:01;;;;;;;;;;;;;;;6.53;95.62;98544.06;6219868;23;19912;-89
2022/12/13 17:17:27;;;;;;;;;;;;;;;6.55;95.67;98545.69;6246130;23;19911;-90
2022/12/13 17:19:52;;;;;;;;;;;;;;;6.53;95.40;98542.28;6219723;23;20006;-89
2022/12/13 17:22:21;;;;;;;;;;;;;;;6.53;95.33;98526.50;6247266;23;19943;-91
2022/12/13 17:24:46;;;;;;;;;;;;;;;6.54;95.26;98529.97;6246558;23;19912;-86
2022/12/13 17:27:12;;;;;;;;;;;;;;;6.53;95.61;98515.13;6244251;23;19912;-86
2022/12/13 17:29:37;;;;;;;;;;;;;;;6.57;95.82;98514.03;6243731;23;20291;-85
2022/12/13 17:32:03;;;;;;;;;;;;;;;6.55;95.97;98506.22;6245449;23;19968;-85
2022/12/13 17:34:28;;;;;;;;;;;;;;;6.54;95.31;98503.66;6219124;23;19990;-87
2022/12/13 17:36:54;;;;;;;;;;;;;;;6.56;95.56;98507.09;6245615;23;20285;-84
2022/12/13 17:39:21;;;;;;;;;;;;;;;6.57;95.73;98494.78;6244328;23;20284;-85
2022/12/13 17:41:46;;;;;;;;;;;;;;;6.57;95.88;98497.41;6244306;23;20225;-86
2022/12/13 17:44:15;;;;;;;;;;;;;;;6.58;96.30;98499.97;6218480;23;19918;-87
2022/12/13 17:46:41;;;;;;;;;;;;;;;6.58;96.18;98509.66;6219892;23;20223;-92
2022/12/13 17:49:16;;;;;;;;;;;;;;;6.58;96.21;98512.28;6246197;23;19919;-86
2022/12/13 17:51:45;;;;;;;;;;;;;;;6.59;96.28;98500.81;6218414;23;19994;-85
2022/12/13 17:54:12;;;;;;;;;;;;;;;6.57;96.31;98498.25;6245172;23;19908;-86
2022/12/13 17:59:23;;;;;;;;;;;;;;;6.59;96.38;98506.06;6234720;23;19954;-84
2022/12/13 18:01:51;;;;;;;;;;;;;;;6.59;96.20;98500.81;6219454;23;19911;-85
2022/12/13 18:04:17;;;;;;;;;;;;;;;6.59;96.24;98520.09;6245095;23;19943;-84
2022/12/13 18:07:11;;;;;;;;;;;;;;;6.60;96.27;98505.16;6245232;23;19912;-86
2022/12/13 18:09:35;;;;;;;;;;;;;;;6.57;95.87;98500.88;6244193;23;19911;-87
2022/12/13 18:12:00;;;;;;;;;;;;;;;6.58;95.81;98505.22;6217568;23;20341;-89
2022/12/13 18:14:29;;;;;;;;;;;;;;;6.58;95.82;98497.34;6245210;23;19919;-87
2022/12/13 18:16:54;;;;;;;;;;;;;;;6.58;95.70;98492.06;6245619;23;19920;-87
2022/12/13 18:19:28;;;;;;;;;;;;;;;6.59;95.62;98492.91;6245336;23;19962;-86
2022/12/13 18:22:05;;;;;;;;;;;;;;;6.57;95.71;98506.16;6245984;23;19973;-93
2022/12/13 18:24:30;;;;;;;;;;;;;;;6.57;95.23;98507.94;6245045;23;19912;-86
2022/12/13 18:26:58;;;;;;;;;;;;;;;6.57;95.10;98521.94;6242875;23;20251;-89
2022/12/13 18:29:23;;;;;;;;;;;;;;;6.56;94.91;98520.25;6245293;23;19915;-84
2022/12/13 18:31:49;;;;;;;;;;;;;;;6.57;94.99;98528.97;6218273;23;19999;-87
2022/12/13 18:37:17;;;;;;;;;;;;;;;6.57;94.98;98523.72;6273636;22;19937;-88
2022/12/13 18:39:44;;;;;;;;;;;;;;;6.57;94.86;98506.16;6251044;22;19915;-84
2022/12/13 18:42:13;;;;;;;;;;;;;;;6.57;95.19;98485.09;6249459;22;19911;-85
2022/12/13 18:44:38;;;;;;;;;;;;;;;6.58;95.16;98497.34;6251115;22;20005;-87
2022/12/13 18:47:06;;;;;;;;;;;;;;;6.60;95.48;98500.75;6252235;22;19919;-88
2022/12/13 18:49:31;;;;;;;;;;;;;;;6.60;95.60;98508.63;6277638;22;19922;-85
2022/12/13 18:51:59;;;;;;;;;;;;;;;6.60;95.48;98502.53;6277507;22;20252;-84
2022/12/13 18:54:27;;;;;;;;;;;;;;;6.59;95.41;98501.69;6277815;22;19911;-84
2022/12/13 18:56:53;;;;;;;;;;;;;;;6.62;95.67;98492.78;6275749;22;19965;-86
2022/12/13 18:59:18;;;;;;;;;;;;;;;6.61;95.47;98496.34;6277607;22;20286;-85
2022/12/13 19:01:43;;;;;;;;;;;;;;;6.60;95.14;98497.25;6277699;22;19911;-87
2022/12/13 19:04:33;;;;;;;;;;;;;;;6.60;95.39;98492.00;6250575;22;20038;-88
2022/12/13 19:07:35;;;;;;;;;;;;;;;6.59;95.08;98475.38;6277361;22;19942;-88
2022/12/13 19:09:53;;;;;;;;;;;;;;;6.60;95.39;98477.06;6271382;22;19926;-85
2022/12/13 19:12:18;;;;;;;;;;;;;;;6.59;95.27;98485.88;6275780;22;19915;-83
2022/12/13 19:14:45;;;;;;;;;;;;;;;6.61;95.24;98484.03;6276802;22;19907;-81
2022/12/13 19:17:11;;;;;;;;;;;;;;;6.59;95.06;98470.09;6277078;22;19918;-84
2022/12/13 19:19:36;;;;;;;;;;;;;;;6.59;95.08;98454.31;6277321;22;19915;-85
2022/12/13 19:22:02;;;;;;;;;;;;;;;6.61;95.39;98462.97;6277834;22;19934;-86
2022/12/13 19:24:27;;;;;;;;;;;;;;;6.63;95.44;98462.91;6249481;22;19915;-84
2022/12/13 19:26:52;;;;;;;;;;;;;;;6.61;95.59;98462.97;6276074;22;19918;-91
2022/12/13 19:29:18;;;;;;;;;;;;;;;6.61;95.69;98462.97;6250059;22;20382;-87
2022/12/13 19:31:43;;;;;;;;;;;;;;;6.62;95.47;98461.19;6277247;22;19915;-84
2022/12/13 19:34:08;;;;;;;;;;;;;;;6.61;95.34;98457.72;6276907;22;20537;-84
2022/12/13 19:36:34;;;;;;;;;;;;;;;6.61;95.30;98462.97;6277184;22;19919;-86
2022/12/13 19:38:59;;;;;;;;;;;;;;;6.59;95.05;98446.41;6277125;22;19912;-85
2022/12/13 19:41:25;;;;;;;;;;;;;;;6.59;95.02;98448.16;6275739;22;19915;-85
2022/12/13 19:43:50;;;;;;;;;;;;;;;6.61;94.87;98449.81;6276573;22;20000;-85
2022/12/13 19:46:18;;;;;;;;;;;;;;;6.59;94.84;98453.44;6276985;22;19961;-85
2022/12/13 19:48:44;;;;;;;;;;;;;;;6.59;94.91;98445.53;6224161;22;19923;-86